sensor_id;sensor_type;location;lat;lon;timestamp;P1;durP1;ratioP1;P2;durP2;ratioP2
15814;SDS011;8008;50.024;8.172;2022-10-30T04:01:29;20.48;;;9.32;;
15814;SDS011;8008;50.024;8.172;2022-10-30T04:03:58;14.70;;;9.27;;
15814;SDS011;8008;50.024;8.172;2022-10-30T04:06:30;29.17;;;8.70;;
15814;SDS011;8008;50.024;8.172;2022-10-30T04:08:58;34.47;;;9.45;;
15814;SDS011;8008;50.024;8.172;2022-10-30T04:11:32;17.75;;;8.95;;
15814;SDS011;8008;50.024;8.172;2022-10-30T04:14:00;18.35;;;9.50;;
15814;SDS011;8008;50.024;8.172;2022-10-30T04:16:32;13.63;;;9.30;;
15814;SDS011;8008;50.024;8.172;2022-10-30T04:19:01;25.85;;;9.27;;
15814;SDS011;8008;50.024;8.172;2022-10-30T04:21:29;19.02;;;9.45;;
15814;SDS011;8008;50.024;8.172;2022-10-30T04:23:57;14.80;;;8.85;;
15814;SDS011;8008;50.024;8.172;2022-10-30T04:26:28;12.57;;;8.90;;
15814;SDS011;8008;50.024;8.172;2022-10-30T04:28:56;26.67;;;9.50;;
15814;SDS011;8008;50.024;8.172;2022-10-30T04:31:24;20.60;;;9.30;;
15814;SDS011;8008;50.024;8.172;2022-10-30T04:33:54;56.85;;;9.20;;
15814;SDS011;8008;50.024;8.172;2022-10-30T04:36:21;60.13;;;9.90;;
15814;SDS011;8008;50.024;8.172;2022-10-30T04:38:55;84.20;;;9.77;;
15814;SDS011;8008;50.024;8.172;2022-10-30T04:41:25;96.03;;;9.65;;
15814;SDS011;8008;50.024;8.172;2022-10-30T04:44:00;121.30;;;10.13;;
15814;SDS011;8008;50.024;8.172;2022-10-30T04:46:30;29.55;;;8.13;;
15814;SDS011;8008;50.024;8.172;2022-10-30T04:49:07;47.78;;;8.82;;
15814;SDS011;8008;50.024;8.172;2022-10-30T04:51:35;27.30;;;8.30;;
15814;SDS011;8008;50.024;8.172;2022-10-30T04:54:05;17.23;;;7.82;;
15814;SDS011;8008;50.024;8.172;2022-10-30T04:56:35;23.38;;;8.07;;
15814;SDS011;8008;50.024;8.172;2022-10-30T04:59:03;18.55;;;8.25;;
15814;SDS011;8008;50.024;8.172;2022-10-30T05:01:31;27.05;;;7.90;;
15814;SDS011;8008;50.024;8.172;2022-10-30T05:04:00;19.02;;;7.70;;
15814;SDS011;8008;50.024;8.172;2022-10-30T05:06:31;17.63;;;8.15;;
15814;SDS011;8008;50.024;8.172;2022-10-30T05:09:00;60.22;;;8.35;;
15814;SDS011;8008;50.024;8.172;2022-10-30T05:11:34;39.72;;;7.75;;
15814;SDS011;8008;50.024;8.172;2022-10-30T05:14:02;51.38;;;8.18;;
15814;SDS011;8008;50.024;8.172;2022-10-30T05:16:30;51.55;;;7.25;;
15814;SDS011;8008;50.024;8.172;2022-10-30T05:19:00;33.55;;;7.50;;
15814;SDS011;8008;50.024;8.172;2022-10-30T05:21:28;33.58;;;7.57;;
15814;SDS011;8008;50.024;8.172;2022-10-30T05:23:58;14.82;;;6.57;;
15814;SDS011;8008;50.024;8.172;2022-10-30T05:26:32;33.38;;;7.05;;
15814;SDS011;8008;50.024;8.172;2022-10-30T05:29:00;29.42;;;7.00;;
15814;SDS011;8008;50.024;8.172;2022-10-30T05:31:29;17.90;;;7.03;;
15814;SDS011;8008;50.024;8.172;2022-10-30T05:34:17;14.07;;;6.80;;
15814;SDS011;8008;50.024;8.172;2022-10-30T05:36:48;24.42;;;7.15;;
15814;SDS011;8008;50.024;8.172;2022-10-30T05:39:19;24.52;;;7.10;;
15814;SDS011;8008;50.024;8.172;2022-10-30T05:41:49;27.60;;;7.22;;
15814;SDS011;8008;50.024;8.172;2022-10-30T05:44:18;24.90;;;7.13;;
15814;SDS011;8008;50.024;8.172;2022-10-30T05:47:07;35.55;;;7.05;;
15814;SDS011;8008;50.024;8.172;2022-10-30T05:49:36;47.08;;;7.47;;
15814;SDS011;8008;50.024;8.172;2022-10-30T05:52:09;74.43;;;8.38;;
15814;SDS011;8008;50.024;8.172;2022-10-30T05:54:38;40.28;;;7.20;;
15814;SDS011;8008;50.024;8.172;2022-10-30T05:57:17;66.70;;;8.23;;
15814;SDS011;8008;50.024;8.172;2022-10-30T05:59:45;74.25;;;7.97;;
15814;SDS011;8008;50.024;8.172;2022-10-30T06:02:13;31.90;;;7.47;;
15814;SDS011;8008;50.024;8.172;2022-10-30T06:04:42;24.67;;;7.15;;
15814;SDS011;8008;50.024;8.172;2022-10-30T06:07:12;46.55;;;7.88;;
15814;SDS011;8008;50.024;8.172;2022-10-30T06:09:42;30.83;;;7.32;;
15814;SDS011;8008;50.024;8.172;2022-10-30T06:12:34;28.83;;;7.00;;
15814;SDS011;8008;50.024;8.172;2022-10-30T06:15:31;139.15;;;9.77;;
15814;SDS011;8008;50.024;8.172;2022-10-30T06:18:00;94.75;;;8.30;;
15814;SDS011;8008;50.024;8.172;2022-10-30T06:20:38;53.47;;;7.47;;
15814;SDS011;8008;50.024;8.172;2022-10-30T06:23:24;80.13;;;8.35;;
15814;SDS011;8008;50.024;8.172;2022-10-30T06:26:02;54.72;;;7.03;;
15814;SDS011;8008;50.024;8.172;2022-10-30T06:28:34;42.17;;;7.57;;
15814;SDS011;8008;50.024;8.172;2022-10-30T06:31:02;38.72;;;7.50;;
15814;SDS011;8008;50.024;8.172;2022-10-30T06:33:31;45.15;;;7.18;;
15814;SDS011;8008;50.024;8.172;2022-10-30T06:35:59;40.17;;;7.47;;
15814;SDS011;8008;50.024;8.172;2022-10-30T06:38:27;22.20;;;6.85;;
15814;SDS011;8008;50.024;8.172;2022-10-30T06:40:55;42.47;;;7.15;;
15814;SDS011;8008;50.024;8.172;2022-10-30T06:43:33;9.77;;;6.38;;
15814;SDS011;8008;50.024;8.172;2022-10-30T06:46:05;17.52;;;7.65;;
15814;SDS011;8008;50.024;8.172;2022-10-30T06:48:40;34.25;;;7.20;;
15814;SDS011;8008;50.024;8.172;2022-10-30T06:51:08;21.20;;;6.88;;
15814;SDS011;8008;50.024;8.172;2022-10-30T06:53:38;20.10;;;7.68;;
15814;SDS011;8008;50.024;8.172;2022-10-30T06:56:35;15.55;;;6.82;;
15814;SDS011;8008;50.024;8.172;2022-10-30T06:59:08;24.55;;;6.60;;
15814;SDS011;8008;50.024;8.172;2022-10-30T07:01:44;20.98;;;6.70;;
15814;SDS011;8008;50.024;8.172;2022-10-30T07:04:20;11.70;;;6.90;;
15814;SDS011;8008;50.024;8.172;2022-10-30T07:06:48;9.63;;;6.20;;
15814;SDS011;8008;50.024;8.172;2022-10-30T07:09:19;8.35;;;6.70;;
15814;SDS011;8008;50.024;8.172;2022-10-30T07:11:48;17.17;;;9.55;;
15814;SDS011;8008;50.024;8.172;2022-10-30T07:14:46;19.65;;;6.90;;
15814;SDS011;8008;50.024;8.172;2022-10-30T07:17:33;11.20;;;7.35;;
15814;SDS011;8008;50.024;8.172;2022-10-30T07:20:08;14.88;;;7.20;;
15814;SDS011;8008;50.024;8.172;2022-10-30T07:22:37;19.08;;;7.47;;
15814;SDS011;8008;50.024;8.172;2022-10-30T07:25:06;17.40;;;7.43;;
15814;SDS011;8008;50.024;8.172;2022-10-30T07:27:53;15.02;;;7.22;;
15814;SDS011;8008;50.024;8.172;2022-10-30T07:30:52;19.15;;;8.00;;
15814;SDS011;8008;50.024;8.172;2022-10-30T07:33:33;24.02;;;7.00;;
15814;SDS011;8008;50.024;8.172;2022-10-30T07:36:11;15.95;;;7.55;;
15814;SDS011;8008;50.024;8.172;2022-10-30T07:38:50;8.93;;;6.55;;
15814;SDS011;8008;50.024;8.172;2022-10-30T07:41:48;9.48;;;6.63;;
15814;SDS011;8008;50.024;8.172;2022-10-30T07:44:41;14.70;;;6.47;;
15814;SDS011;8008;50.024;8.172;2022-10-30T07:47:17;12.88;;;6.65;;
15814;SDS011;8008;50.024;8.172;2022-10-30T07:50:08;9.30;;;6.40;;
15814;SDS011;8008;50.024;8.172;2022-10-30T07:52:37;27.00;;;6.70;;
15814;SDS011;8008;50.024;8.172;2022-10-30T07:55:07;12.63;;;6.43;;
15814;SDS011;8008;50.024;8.172;2022-10-30T07:57:55;30.33;;;6.57;;
15814;SDS011;8008;50.024;8.172;2022-10-30T08:00:27;22.63;;;7.13;;
15814;SDS011;8008;50.024;8.172;2022-10-30T08:03:06;33.15;;;6.75;;
15814;SDS011;8008;50.024;8.172;2022-10-30T08:05:49;38.72;;;7.53;;
15814;SDS011;8008;50.024;8.172;2022-10-30T08:08:37;36.58;;;6.13;;
15814;SDS011;8008;50.024;8.172;2022-10-30T08:11:19;13.95;;;6.18;;
15814;SDS011;8008;50.024;8.172;2022-10-30T08:13:47;73.43;;;7.10;;
15814;SDS011;8008;50.024;8.172;2022-10-30T08:16:16;24.70;;;6.40;;
15814;SDS011;8008;50.024;8.172;2022-10-30T08:18:45;61.45;;;6.50;;
15814;SDS011;8008;50.024;8.172;2022-10-30T08:21:13;30.40;;;6.03;;
15814;SDS011;8008;50.024;8.172;2022-10-30T08:23:55;41.55;;;6.80;;
15814;SDS011;8008;50.024;8.172;2022-10-30T08:26:26;17.20;;;5.95;;
15814;SDS011;8008;50.024;8.172;2022-10-30T08:28:54;18.67;;;8.68;;
15814;SDS011;8008;50.024;8.172;2022-10-30T08:31:24;41.47;;;7.20;;
15814;SDS011;8008;50.024;8.172;2022-10-30T08:34:13;7.18;;;6.47;;
15814;SDS011;8008;50.024;8.172;2022-10-30T08:36:47;10.60;;;6.03;;
15814;SDS011;8008;50.024;8.172;2022-10-30T08:39:15;8.40;;;6.60;;
15814;SDS011;8008;50.024;8.172;2022-10-30T08:41:55;18.83;;;9.27;;
15814;SDS011;8008;50.024;8.172;2022-10-30T08:44:29;11.85;;;6.72;;
15814;SDS011;8008;50.024;8.172;2022-10-30T08:47:15;8.23;;;6.68;;
15814;SDS011;8008;50.024;8.172;2022-10-30T08:49:45;9.88;;;6.88;;
15814;SDS011;8008;50.024;8.172;2022-10-30T08:52:17;13.00;;;7.63;;
15814;SDS011;8008;50.024;8.172;2022-10-30T08:54:50;12.75;;;7.93;;
15814;SDS011;8008;50.024;8.172;2022-10-30T08:57:22;12.35;;;7.47;;
15814;SDS011;8008;50.024;8.172;2022-10-30T08:59:52;11.85;;;7.70;;
15814;SDS011;8008;50.024;8.172;2022-10-30T09:02:49;15.40;;;8.50;;
15814;SDS011;8008;50.024;8.172;2022-10-30T09:05:53;15.13;;;9.05;;
15814;SDS011;8008;50.024;8.172;2022-10-30T09:08:59;16.15;;;8.80;;
15814;SDS011;8008;50.024;8.172;2022-10-30T09:11:38;15.95;;;9.38;;
15814;SDS011;8008;50.024;8.172;2022-10-30T09:14:06;14.55;;;9.13;;
15814;SDS011;8008;50.024;8.172;2022-10-30T09:16:34;14.70;;;9.38;;
15814;SDS011;8008;50.024;8.172;2022-10-30T09:19:02;16.40;;;10.27;;
15814;SDS011;8008;50.024;8.172;2022-10-30T09:21:31;21.88;;;11.88;;
15814;SDS011;8008;50.024;8.172;2022-10-30T09:24:00;20.95;;;12.48;;
15814;SDS011;8008;50.024;8.172;2022-10-30T09:26:33;20.50;;;11.65;;
15814;SDS011;8008;50.024;8.172;2022-10-30T09:29:15;19.73;;;12.10;;
15814;SDS011;8008;50.024;8.172;2022-10-30T09:32:05;17.90;;;11.05;;
15814;SDS011;8008;50.024;8.172;2022-10-30T09:34:58;16.92;;;10.80;;
15814;SDS011;8008;50.024;8.172;2022-10-30T09:37:33;20.05;;;11.98;;
15814;SDS011;8008;50.024;8.172;2022-10-30T09:40:05;16.83;;;12.00;;
15814;SDS011;8008;50.024;8.172;2022-10-30T09:49:38;18.35;;;13.70;;
15814;SDS011;8008;50.024;8.172;2022-10-30T09:52:25;23.30;;;13.68;;
15814;SDS011;8008;50.024;8.172;2022-10-30T09:55:07;20.85;;;14.10;;
15814;SDS011;8008;50.024;8.172;2022-10-30T09:57:47;19.90;;;13.20;;
15814;SDS011;8008;50.024;8.172;2022-10-30T10:00:22;24.13;;;15.05;;
15814;SDS011;8008;50.024;8.172;2022-10-30T10:03:02;26.52;;;15.30;;
15814;SDS011;8008;50.024;8.172;2022-10-30T10:05:59;19.10;;;14.45;;
15814;SDS011;8008;50.024;8.172;2022-10-30T10:08:48;23.25;;;16.00;;
15814;SDS011;8008;50.024;8.172;2022-10-30T10:11:34;21.95;;;15.13;;
15814;SDS011;8008;50.024;8.172;2022-10-30T10:14:06;27.58;;;16.90;;
15814;SDS011;8008;50.024;8.172;2022-10-30T10:16:40;26.27;;;17.05;;
15814;SDS011;8008;50.024;8.172;2022-10-30T10:19:13;28.95;;;18.05;;
15814;SDS011;8008;50.024;8.172;2022-10-30T10:21:47;26.98;;;17.58;;
15814;SDS011;8008;50.024;8.172;2022-10-30T10:24:19;28.13;;;17.77;;
15814;SDS011;8008;50.024;8.172;2022-10-30T10:26:53;28.88;;;18.75;;
15814;SDS011;8008;50.024;8.172;2022-10-30T10:29:28;29.27;;;19.40;;
15814;SDS011;8008;50.024;8.172;2022-10-30T10:32:07;32.45;;;19.20;;
15814;SDS011;8008;50.024;8.172;2022-10-30T10:35:05;32.80;;;18.85;;
15814;SDS011;8008;50.024;8.172;2022-10-30T10:37:48;26.85;;;17.90;;
15814;SDS011;8008;50.024;8.172;2022-10-30T10:40:27;30.17;;;18.60;;
15814;SDS011;8008;50.024;8.172;2022-10-30T10:43:09;24.52;;;17.67;;
15814;SDS011;8008;50.024;8.172;2022-10-30T10:45:46;25.13;;;18.10;;
15814;SDS011;8008;50.024;8.172;2022-10-30T10:48:34;25.38;;;17.25;;
15814;SDS011;8008;50.024;8.172;2022-10-30T10:51:14;24.02;;;16.63;;
15814;SDS011;8008;50.024;8.172;2022-10-30T10:53:47;27.90;;;17.70;;
15814;SDS011;8008;50.024;8.172;2022-10-30T10:56:24;25.40;;;16.85;;
15814;SDS011;8008;50.024;8.172;2022-10-30T10:59:02;24.40;;;17.38;;
15814;SDS011;8008;50.024;8.172;2022-10-30T11:04:44;22.95;;;16.05;;
15814;SDS011;8008;50.024;8.172;2022-10-30T11:07:18;24.10;;;15.10;;
15814;SDS011;8008;50.024;8.172;2022-10-30T11:09:49;23.40;;;17.00;;
15814;SDS011;8008;50.024;8.172;2022-10-30T11:12:21;23.35;;;16.00;;
15814;SDS011;8008;50.024;8.172;2022-10-30T11:15:05;29.38;;;18.95;;
15814;SDS011;8008;50.024;8.172;2022-10-30T11:17:49;25.75;;;17.73;;
15814;SDS011;8008;50.024;8.172;2022-10-30T11:20:28;24.83;;;16.45;;
15814;SDS011;8008;50.024;8.172;2022-10-30T11:23:03;25.05;;;16.58;;
15814;SDS011;8008;50.024;8.172;2022-10-30T11:25:51;25.35;;;15.60;;
15814;SDS011;8008;50.024;8.172;2022-10-30T11:28:33;21.75;;;15.45;;
15814;SDS011;8008;50.024;8.172;2022-10-30T11:31:19;23.33;;;15.90;;
15814;SDS011;8008;50.024;8.172;2022-10-30T11:33:48;22.83;;;14.77;;
15814;SDS011;8008;50.024;8.172;2022-10-30T11:36:18;25.25;;;15.82;;
15814;SDS011;8008;50.024;8.172;2022-10-30T11:38:48;22.92;;;15.95;;
15814;SDS011;8008;50.024;8.172;2022-10-30T11:41:17;23.15;;;15.63;;
15814;SDS011;8008;50.024;8.172;2022-10-30T11:43:46;23.75;;;17.02;;
15814;SDS011;8008;50.024;8.172;2022-10-30T11:46:20;24.65;;;16.55;;
15814;SDS011;8008;50.024;8.172;2022-10-30T11:48:49;23.45;;;16.40;;
15814;SDS011;8008;50.024;8.172;2022-10-30T11:51:33;22.55;;;16.85;;
15814;SDS011;8008;50.024;8.172;2022-10-30T11:54:03;25.75;;;16.48;;
15814;SDS011;8008;50.024;8.172;2022-10-30T11:56:33;22.77;;;15.95;;
15814;SDS011;8008;50.024;8.172;2022-10-30T11:59:02;24.20;;;16.52;;
15814;SDS011;8008;50.024;8.172;2022-10-30T12:01:34;22.10;;;15.93;;
15814;SDS011;8008;50.024;8.172;2022-10-30T12:04:12;21.77;;;15.93;;
15814;SDS011;8008;50.024;8.172;2022-10-30T12:06:42;21.90;;;15.63;;
15814;SDS011;8008;50.024;8.172;2022-10-30T12:09:12;22.02;;;15.57;;
15814;SDS011;8008;50.024;8.172;2022-10-30T12:11:41;22.90;;;15.35;;
15814;SDS011;8008;50.024;8.172;2022-10-30T12:14:15;21.65;;;15.63;;
15814;SDS011;8008;50.024;8.172;2022-10-30T12:16:47;22.90;;;15.35;;
15814;SDS011;8008;50.024;8.172;2022-10-30T12:19:17;21.50;;;15.45;;
15814;SDS011;8008;50.024;8.172;2022-10-30T12:21:51;19.30;;;14.93;;
15814;SDS011;8008;50.024;8.172;2022-10-30T12:24:22;25.92;;;14.60;;
15814;SDS011;8008;50.024;8.172;2022-10-30T12:26:59;19.55;;;14.38;;
15814;SDS011;8008;50.024;8.172;2022-10-30T12:29:34;21.77;;;14.68;;
15814;SDS011;8008;50.024;8.172;2022-10-30T12:32:31;22.48;;;14.02;;
15814;SDS011;8008;50.024;8.172;2022-10-30T12:35:07;24.20;;;14.68;;
15814;SDS011;8008;50.024;8.172;2022-10-30T12:37:42;19.77;;;14.05;;
15814;SDS011;8008;50.024;8.172;2022-10-30T12:40:11;22.98;;;14.05;;
15814;SDS011;8008;50.024;8.172;2022-10-30T12:42:44;18.63;;;13.57;;
15814;SDS011;8008;50.024;8.172;2022-10-30T12:45:20;20.48;;;13.77;;
15814;SDS011;8008;50.024;8.172;2022-10-30T12:47:56;18.42;;;14.10;;
15814;SDS011;8008;50.024;8.172;2022-10-30T12:50:32;24.15;;;13.80;;
15814;SDS011;8008;50.024;8.172;2022-10-30T12:53:07;20.98;;;14.90;;
15814;SDS011;8008;50.024;8.172;2022-10-30T12:55:48;22.90;;;15.88;;
15814;SDS011;8008;50.024;8.172;2022-10-30T12:58:25;21.73;;;15.63;;
15814;SDS011;8008;50.024;8.172;2022-10-30T13:01:00;21.30;;;15.07;;
15814;SDS011;8008;50.024;8.172;2022-10-30T13:03:40;22.55;;;16.27;;
15814;SDS011;8008;50.024;8.172;2022-10-30T13:06:15;22.65;;;14.45;;
15814;SDS011;8008;50.024;8.172;2022-10-30T13:08:49;24.23;;;15.07;;
15814;SDS011;8008;50.024;8.172;2022-10-30T13:11:27;21.77;;;14.55;;
15814;SDS011;8008;50.024;8.172;2022-10-30T13:14:08;20.95;;;14.40;;
15814;SDS011;8008;50.024;8.172;2022-10-30T13:16:41;22.35;;;14.02;;
15814;SDS011;8008;50.024;8.172;2022-10-30T13:19:11;20.15;;;14.50;;
15814;SDS011;8008;50.024;8.172;2022-10-30T13:21:42;21.38;;;15.18;;
15814;SDS011;8008;50.024;8.172;2022-10-30T13:24:16;20.48;;;14.32;;
15814;SDS011;8008;50.024;8.172;2022-10-30T13:26:50;25.08;;;14.55;;
15814;SDS011;8008;50.024;8.172;2022-10-30T13:29:24;23.38;;;14.68;;
15814;SDS011;8008;50.024;8.172;2022-10-30T13:31:58;19.63;;;13.80;;
15814;SDS011;8008;50.024;8.172;2022-10-30T13:34:41;22.48;;;13.70;;
15814;SDS011;8008;50.024;8.172;2022-10-30T13:37:17;19.17;;;13.63;;
15814;SDS011;8008;50.024;8.172;2022-10-30T13:39:56;20.00;;;13.25;;
15814;SDS011;8008;50.024;8.172;2022-10-30T13:42:41;22.17;;;13.80;;
15814;SDS011;8008;50.024;8.172;2022-10-30T13:45:20;20.33;;;13.57;;
15814;SDS011;8008;50.024;8.172;2022-10-30T13:48:02;18.08;;;12.65;;
15814;SDS011;8008;50.024;8.172;2022-10-30T13:50:41;22.67;;;13.05;;
15814;SDS011;8008;50.024;8.172;2022-10-30T13:53:24;19.00;;;14.15;;
15814;SDS011;8008;50.024;8.172;2022-10-30T13:55:57;19.02;;;13.27;;
15814;SDS011;8008;50.024;8.172;2022-10-30T13:58:28;18.77;;;12.57;;
15814;SDS011;8008;50.024;8.172;2022-10-30T14:01:03;18.58;;;11.90;;
15814;SDS011;8008;50.024;8.172;2022-10-30T14:03:44;16.30;;;11.35;;
15814;SDS011;8008;50.024;8.172;2022-10-30T14:06:23;15.82;;;10.57;;
15814;SDS011;8008;50.024;8.172;2022-10-30T14:09:04;14.57;;;10.70;;
15814;SDS011;8008;50.024;8.172;2022-10-30T14:11:39;13.40;;;9.82;;
15814;SDS011;8008;50.024;8.172;2022-10-30T14:14:22;13.10;;;9.13;;
15814;SDS011;8008;50.024;8.172;2022-10-30T14:17:08;12.90;;;9.15;;
15814;SDS011;8008;50.024;8.172;2022-10-30T14:22:45;13.00;;;8.48;;
15814;SDS011;8008;50.024;8.172;2022-10-30T14:25:34;12.30;;;8.93;;
15814;SDS011;8008;50.024;8.172;2022-10-30T14:28:16;10.23;;;8.68;;
15814;SDS011;8008;50.024;8.172;2022-10-30T14:30:46;11.13;;;8.38;;
15814;SDS011;8008;50.024;8.172;2022-10-30T14:36:12;13.50;;;8.65;;
15814;SDS011;8008;50.024;8.172;2022-10-30T14:38:42;10.93;;;8.05;;
15814;SDS011;8008;50.024;8.172;2022-10-30T14:44:32;11.82;;;7.78;;
15814;SDS011;8008;50.024;8.172;2022-10-30T14:50:22;12.48;;;7.57;;
15814;SDS011;8008;50.024;8.172;2022-10-30T14:56:00;12.55;;;7.25;;
15814;SDS011;8008;50.024;8.172;2022-10-30T14:58:33;12.25;;;7.65;;
15814;SDS011;8008;50.024;8.172;2022-10-30T15:03:57;11.65;;;7.60;;
15814;SDS011;8008;50.024;8.172;2022-10-30T15:06:33;12.65;;;7.95;;
15814;SDS011;8008;50.024;8.172;2022-10-30T15:09:18;11.07;;;7.82;;
15814;SDS011;8008;50.024;8.172;2022-10-30T15:14:59;12.07;;;7.85;;
15814;SDS011;8008;50.024;8.172;2022-10-30T15:17:30;14.65;;;8.70;;
15814;SDS011;8008;50.024;8.172;2022-10-30T15:20:04;12.98;;;8.55;;
15814;SDS011;8008;50.024;8.172;2022-10-30T15:22:34;13.32;;;8.88;;
15814;SDS011;8008;50.024;8.172;2022-10-30T15:25:03;12.40;;;9.23;;
15814;SDS011;8008;50.024;8.172;2022-10-30T15:27:32;15.95;;;10.32;;
15814;SDS011;8008;50.024;8.172;2022-10-30T15:30:03;16.48;;;11.35;;
15814;SDS011;8008;50.024;8.172;2022-10-30T15:32:32;14.77;;;11.10;;
15814;SDS011;8008;50.024;8.172;2022-10-30T15:35:01;17.23;;;10.98;;
15814;SDS011;8008;50.024;8.172;2022-10-30T15:37:31;13.73;;;10.27;;
15814;SDS011;8008;50.024;8.172;2022-10-30T15:40:08;16.83;;;10.13;;
15814;SDS011;8008;50.024;8.172;2022-10-30T15:42:37;14.07;;;9.35;;
15814;SDS011;8008;50.024;8.172;2022-10-30T15:45:10;12.75;;;9.43;;
15814;SDS011;8008;50.024;8.172;2022-10-30T15:47:44;15.30;;;10.40;;
15814;SDS011;8008;50.024;8.172;2022-10-30T15:50:14;13.63;;;9.82;;
15814;SDS011;8008;50.024;8.172;2022-10-30T15:52:45;17.58;;;9.75;;
15814;SDS011;8008;50.024;8.172;2022-10-30T15:55:13;17.40;;;10.15;;
15814;SDS011;8008;50.024;8.172;2022-10-30T15:57:46;17.50;;;9.88;;
15814;SDS011;8008;50.024;8.172;2022-10-30T16:00:33;17.35;;;12.30;;
15814;SDS011;8008;50.024;8.172;2022-10-30T16:03:04;24.00;;;16.20;;
15814;SDS011;8008;50.024;8.172;2022-10-30T16:05:34;22.95;;;17.02;;
15814;SDS011;8008;50.024;8.172;2022-10-30T16:08:08;27.73;;;16.00;;
15814;SDS011;8008;50.024;8.172;2022-10-30T16:10:38;23.45;;;15.25;;
15814;SDS011;8008;50.024;8.172;2022-10-30T16:13:09;23.95;;;14.90;;
15814;SDS011;8008;50.024;8.172;2022-10-30T16:15:43;21.25;;;14.80;;
15814;SDS011;8008;50.024;8.172;2022-10-30T16:18:14;23.88;;;13.77;;
15814;SDS011;8008;50.024;8.172;2022-10-30T16:20:46;24.13;;;13.63;;
15814;SDS011;8008;50.024;8.172;2022-10-30T16:23:16;20.13;;;13.43;;
15814;SDS011;8008;50.024;8.172;2022-10-30T16:25:45;22.30;;;15.00;;
15814;SDS011;8008;50.024;8.172;2022-10-30T16:28:23;24.75;;;15.32;;
15814;SDS011;8008;50.024;8.172;2022-10-30T16:30:55;24.13;;;14.85;;
15814;SDS011;8008;50.024;8.172;2022-10-30T16:33:25;27.98;;;14.75;;
15814;SDS011;8008;50.024;8.172;2022-10-30T16:35:54;22.10;;;14.30;;
15814;SDS011;8008;50.024;8.172;2022-10-30T16:38:25;22.50;;;14.48;;
15814;SDS011;8008;50.024;8.172;2022-10-30T16:40:56;23.35;;;15.15;;
15814;SDS011;8008;50.024;8.172;2022-10-30T16:43:25;24.05;;;14.57;;
15814;SDS011;8008;50.024;8.172;2022-10-30T16:45:56;23.05;;;14.07;;
15814;SDS011;8008;50.024;8.172;2022-10-30T16:48:59;22.15;;;14.82;;
15814;SDS011;8008;50.024;8.172;2022-10-30T16:51:31;24.15;;;14.60;;
15814;SDS011;8008;50.024;8.172;2022-10-30T16:53:59;21.45;;;14.30;;
15814;SDS011;8008;50.024;8.172;2022-10-30T16:56:27;25.70;;;16.85;;
15814;SDS011;8008;50.024;8.172;2022-10-30T16:59:05;30.75;;;18.60;;
15814;SDS011;8008;50.024;8.172;2022-10-30T17:01:35;24.73;;;16.90;;
15814;SDS011;8008;50.024;8.172;2022-10-30T17:04:04;26.38;;;17.40;;
15814;SDS011;8008;50.024;8.172;2022-10-30T17:06:35;26.13;;;16.80;;
15814;SDS011;8008;50.024;8.172;2022-10-30T17:09:06;25.40;;;17.08;;
15814;SDS011;8008;50.024;8.172;2022-10-30T17:11:37;27.88;;;17.20;;
15814;SDS011;8008;50.024;8.172;2022-10-30T17:14:16;24.90;;;17.25;;
15814;SDS011;8008;50.024;8.172;2022-10-30T17:16:51;24.90;;;17.08;;
15814;SDS011;8008;50.024;8.172;2022-10-30T17:22:07;25.52;;;16.20;;
15814;SDS011;8008;50.024;8.172;2022-10-30T17:24:39;26.55;;;16.70;;
15814;SDS011;8008;50.024;8.172;2022-10-30T17:27:24;26.80;;;16.30;;
15814;SDS011;8008;50.024;8.172;2022-10-30T17:30:32;23.48;;;15.25;;
15814;SDS011;8008;50.024;8.172;2022-10-30T17:33:20;20.98;;;14.45;;
15814;SDS011;8008;50.024;8.172;2022-10-30T17:35:50;24.95;;;15.70;;
15814;SDS011;8008;50.024;8.172;2022-10-30T17:38:19;23.10;;;14.45;;
15814;SDS011;8008;50.024;8.172;2022-10-30T17:40:47;22.63;;;15.07;;
15814;SDS011;8008;50.024;8.172;2022-10-30T17:43:15;27.13;;;16.10;;
15814;SDS011;8008;50.024;8.172;2022-10-30T17:45:43;26.63;;;15.90;;
15814;SDS011;8008;50.024;8.172;2022-10-30T17:48:13;33.25;;;17.33;;
15814;SDS011;8008;50.024;8.172;2022-10-30T17:50:43;53.83;;;32.15;;
15814;SDS011;8008;50.024;8.172;2022-10-30T17:53:15;48.08;;;30.27;;
15814;SDS011;8008;50.024;8.172;2022-10-30T17:55:46;43.35;;;28.67;;
15814;SDS011;8008;50.024;8.172;2022-10-30T17:58:22;40.35;;;23.02;;
15814;SDS011;8008;50.024;8.172;2022-10-30T18:00:49;40.10;;;24.88;;
15814;SDS011;8008;50.024;8.172;2022-10-30T18:03:19;40.78;;;26.52;;
15814;SDS011;8008;50.024;8.172;2022-10-30T18:05:47;47.10;;;28.85;;
15814;SDS011;8008;50.024;8.172;2022-10-30T18:08:15;55.83;;;34.35;;
15814;SDS011;8008;50.024;8.172;2022-10-30T18:10:43;48.85;;;30.95;;
15814;SDS011;8008;50.024;8.172;2022-10-30T18:13:11;37.85;;;24.70;;
15814;SDS011;8008;50.024;8.172;2022-10-30T18:15:40;31.98;;;20.27;;
15814;SDS011;8008;50.024;8.172;2022-10-30T18:18:10;31.30;;;18.88;;
15814;SDS011;8008;50.024;8.172;2022-10-30T18:20:39;43.78;;;26.58;;
15814;SDS011;8008;50.024;8.172;2022-10-30T18:23:10;45.47;;;30.00;;
15814;SDS011;8008;50.024;8.172;2022-10-30T18:26:05;44.50;;;27.45;;
15814;SDS011;8008;50.024;8.172;2022-10-30T18:28:33;40.22;;;24.55;;
15814;SDS011;8008;50.024;8.172;2022-10-30T18:31:01;40.67;;;23.65;;
15814;SDS011;8008;50.024;8.172;2022-10-30T18:33:29;35.40;;;22.98;;
15814;SDS011;8008;50.024;8.172;2022-10-30T18:35:58;35.28;;;23.15;;
15814;SDS011;8008;50.024;8.172;2022-10-30T18:38:26;44.45;;;25.20;;
15814;SDS011;8008;50.024;8.172;2022-10-30T18:40:54;41.53;;;25.40;;
15814;SDS011;8008;50.024;8.172;2022-10-30T18:43:22;45.85;;;27.45;;
15814;SDS011;8008;50.024;8.172;2022-10-30T18:45:50;39.80;;;25.05;;
15814;SDS011;8008;50.024;8.172;2022-10-30T18:48:18;40.72;;;24.27;;
15814;SDS011;8008;50.024;8.172;2022-10-30T18:50:45;41.03;;;25.15;;
15814;SDS011;8008;50.024;8.172;2022-10-30T18:53:15;38.45;;;23.20;;
15814;SDS011;8008;50.024;8.172;2022-10-30T18:55:44;37.10;;;22.63;;
15814;SDS011;8008;50.024;8.172;2022-10-30T18:58:12;37.97;;;22.35;;
15814;SDS011;8008;50.024;8.172;2022-10-30T19:00:40;28.13;;;17.88;;
15814;SDS011;8008;50.024;8.172;2022-10-30T19:03:27;29.98;;;18.00;;
15814;SDS011;8008;50.024;8.172;2022-10-30T19:05:55;30.02;;;18.75;;
15814;SDS011;8008;50.024;8.172;2022-10-30T19:08:24;29.35;;;19.63;;
15814;SDS011;8008;50.024;8.172;2022-10-30T19:10:52;36.38;;;22.40;;
15814;SDS011;8008;50.024;8.172;2022-10-30T19:13:23;51.00;;;29.77;;
15814;SDS011;8008;50.024;8.172;2022-10-30T19:15:51;37.30;;;21.90;;
15814;SDS011;8008;50.024;8.172;2022-10-30T19:18:26;35.63;;;21.63;;
15814;SDS011;8008;50.024;8.172;2022-10-30T19:20:56;32.67;;;18.33;;
15814;SDS011;8008;50.024;8.172;2022-10-30T19:23:39;28.15;;;17.88;;
15814;SDS011;8008;50.024;8.172;2022-10-30T19:26:07;30.48;;;16.85;;
15814;SDS011;8008;50.024;8.172;2022-10-30T19:28:40;33.08;;;17.55;;
15814;SDS011;8008;50.024;8.172;2022-10-30T19:31:09;34.17;;;20.08;;
15814;SDS011;8008;50.024;8.172;2022-10-30T19:33:40;27.88;;;16.80;;
15814;SDS011;8008;50.024;8.172;2022-10-30T19:36:23;22.15;;;15.93;;
15814;SDS011;8008;50.024;8.172;2022-10-30T19:38:54;21.48;;;12.23;;
15814;SDS011;8008;50.024;8.172;2022-10-30T19:41:23;19.38;;;12.02;;
15814;SDS011;8008;50.024;8.172;2022-10-30T19:43:51;21.27;;;11.75;;
15814;SDS011;8008;50.024;8.172;2022-10-30T19:46:19;20.88;;;12.05;;
15814;SDS011;8008;50.024;8.172;2022-10-30T19:48:47;21.25;;;12.27;;
15814;SDS011;8008;50.024;8.172;2022-10-30T19:51:25;23.40;;;12.82;;
15814;SDS011;8008;50.024;8.172;2022-10-30T19:53:54;23.85;;;15.85;;
15814;SDS011;8008;50.024;8.172;2022-10-30T19:56:22;34.78;;;17.17;;
15814;SDS011;8008;50.024;8.172;2022-10-30T19:58:50;40.72;;;19.17;;